Hlavní strana
METAR-TAF:

METAR-TAF

Letiště :

Námořní základna Rota

Rota, Španělsko

zeměpisná šířka: 36-39N, zeměpisná délka: 006-21W, výška: 26 m

Aktuální stav počasí

Zpráva byla vytvořena před 55 minutami, v 03:00 UTC
Severoseverovýchodní vítr 7 kt, proměnlivý mezi severním a východoseverovýchodním
Teplota 18°C
Vlhkost vzduchu 56%
Tlak 1019 hPa
Viditelnost 10 km a více

METAR: LERT 260300Z AUTO 03007KT 010V070 9999 NCD 18/09 Q1019

Čas: 05:55 (03:55 UTC)

Předpověď počasí

Zpráva byla vytvořena před 1 hodinou a 55 minutami, v 02:00 UTC
Předpověď platná od 26 v 03 UTC do 26 v 12 UTC
Východojihovýchodní vítr 12 kt
Viditelnost 10 km a více
Žádná oblačnost pod 1500 m, nevyskytují se cumulonimby.
Dočasný
od 26 v 06 UTC do 26 v 12 UTC
Východojihovýchodní vítr 18 kt s nárazy do 30 kt

TAF: LERT 260200Z 2603/2612 12012KT CAVOK TEMPO 2606/2612 12018G30KT

Stav a předpovědi počasí z více než 4 000 letišť (zprávy METAR a TAF).

Červené a žluté tečky na mapě představují dostupné meteorologické stanice.

Když kurzor umístíte na tečku, zobrazí se název stanice.

Pak kliknutím zobrazíte stav a předpověď počasí.

Chcete-li změnit mapu, kliknutím na zelené tlačítko se znaménkem +mapu přiblížíte, kliknutím na zelené tlačítko se znaménkem – mapu oddálíte a kliknutím na zelené šipky přejdete na sousední mapy.


METAR-TAF: